sensor_id;sensor_type;location;lat;lon;timestamp;P1;durP1;ratioP1;P2;durP2;ratioP2
51654;SDS011;37732;53.106;7.030;2024-01-30T00:01:15;22.60;;;20.20;;
51654;SDS011;37732;53.106;7.030;2024-01-30T00:03:40;26.27;;;21.52;;
51654;SDS011;37732;53.106;7.030;2024-01-30T00:06:07;22.52;;;19.58;;
51654;SDS011;37732;53.106;7.030;2024-01-30T00:08:33;24.70;;;22.05;;
51654;SDS011;37732;53.106;7.030;2024-01-30T00:10:59;22.58;;;20.17;;
51654;SDS011;37732;53.106;7.030;2024-01-30T00:13:24;23.08;;;20.67;;
51654;SDS011;37732;53.106;7.030;2024-01-30T00:15:50;22.35;;;19.95;;
51654;SDS011;37732;53.106;7.030;2024-01-30T00:18:16;21.50;;;19.38;;
51654;SDS011;37732;53.106;7.030;2024-01-30T00:20:41;22.25;;;19.88;;
51654;SDS011;37732;53.106;7.030;2024-01-30T00:23:08;23.42;;;20.70;;
51654;SDS011;37732;53.106;7.030;2024-01-30T00:25:33;23.58;;;20.25;;
51654;SDS011;37732;53.106;7.030;2024-01-30T00:27:59;24.35;;;20.30;;
51654;SDS011;37732;53.106;7.030;2024-01-30T00:30:25;20.83;;;18.73;;
51654;SDS011;37732;53.106;7.030;2024-01-30T00:32:51;24.10;;;21.05;;
51654;SDS011;37732;53.106;7.030;2024-01-30T00:35:17;24.40;;;21.35;;
51654;SDS011;37732;53.106;7.030;2024-01-30T00:37:42;21.25;;;18.85;;
51654;SDS011;37732;53.106;7.030;2024-01-30T00:40:08;23.52;;;21.15;;
51654;SDS011;37732;53.106;7.030;2024-01-30T00:42:40;22.65;;;20.35;;
51654;SDS011;37732;53.106;7.030;2024-01-30T00:45:15;23.13;;;20.65;;
51654;SDS011;37732;53.106;7.030;2024-01-30T00:47:42;23.02;;;20.63;;
51654;SDS011;37732;53.106;7.030;2024-01-30T00:50:07;22.05;;;18.85;;
51654;SDS011;37732;53.106;7.030;2024-01-30T00:52:34;24.33;;;20.50;;
51654;SDS011;37732;53.106;7.030;2024-01-30T00:55:00;26.33;;;21.10;;
51654;SDS011;37732;53.106;7.030;2024-01-30T00:57:25;25.83;;;20.75;;
51654;SDS011;37732;53.106;7.030;2024-01-30T00:59:52;21.95;;;19.50;;
51654;SDS011;37732;53.106;7.030;2024-01-30T01:02:17;24.85;;;20.50;;
51654;SDS011;37732;53.106;7.030;2024-01-30T01:04:44;21.30;;;19.05;;
51654;SDS011;37732;53.106;7.030;2024-01-30T01:07:10;22.92;;;19.08;;
51654;SDS011;37732;53.106;7.030;2024-01-30T01:09:36;26.65;;;21.23;;
51654;SDS011;37732;53.106;7.030;2024-01-30T01:12:02;23.35;;;20.17;;
51654;SDS011;37732;53.106;7.030;2024-01-30T01:14:28;23.70;;;19.40;;
51654;SDS011;37732;53.106;7.030;2024-01-30T01:16:54;24.08;;;20.25;;
51654;SDS011;37732;53.106;7.030;2024-01-30T01:19:20;23.27;;;20.65;;
51654;SDS011;37732;53.106;7.030;2024-01-30T01:21:46;22.27;;;19.15;;
51654;SDS011;37732;53.106;7.030;2024-01-30T01:24:12;22.55;;;18.65;;
51654;SDS011;37732;53.106;7.030;2024-01-30T01:26:37;22.05;;;19.67;;
51654;SDS011;37732;53.106;7.030;2024-01-30T01:29:03;21.92;;;18.70;;
51654;SDS011;37732;53.106;7.030;2024-01-30T01:31:35;19.50;;;17.45;;
51654;SDS011;37732;53.106;7.030;2024-01-30T01:34:05;23.50;;;19.08;;
51654;SDS011;37732;53.106;7.030;2024-01-30T01:36:31;23.23;;;19.13;;
51654;SDS011;37732;53.106;7.030;2024-01-30T01:38:56;20.83;;;17.20;;
51654;SDS011;37732;53.106;7.030;2024-01-30T01:41:22;22.48;;;19.33;;
51654;SDS011;37732;53.106;7.030;2024-01-30T01:43:48;21.00;;;18.45;;
51654;SDS011;37732;53.106;7.030;2024-01-30T01:46:13;24.35;;;19.98;;
51654;SDS011;37732;53.106;7.030;2024-01-30T01:48:42;21.20;;;18.75;;
51654;SDS011;37732;53.106;7.030;2024-01-30T01:51:08;23.77;;;19.75;;
51654;SDS011;37732;53.106;7.030;2024-01-30T01:53:34;22.00;;;18.73;;
51654;SDS011;37732;53.106;7.030;2024-01-30T01:56:00;22.35;;;19.80;;
51654;SDS011;37732;53.106;7.030;2024-01-30T01:58:26;26.33;;;20.65;;
51654;SDS011;37732;53.106;7.030;2024-01-30T02:03:30;24.23;;;19.40;;
51654;SDS011;37732;53.106;7.030;2024-01-30T02:05:56;25.67;;;20.15;;
51654;SDS011;37732;53.106;7.030;2024-01-30T02:08:22;22.92;;;20.38;;
51654;SDS011;37732;53.106;7.030;2024-01-30T02:10:48;21.55;;;18.75;;
51654;SDS011;37732;53.106;7.030;2024-01-30T02:13:14;21.45;;;18.98;;
51654;SDS011;37732;53.106;7.030;2024-01-30T02:15:40;22.30;;;19.38;;
51654;SDS011;37732;53.106;7.030;2024-01-30T02:18:05;23.58;;;18.63;;
51654;SDS011;37732;53.106;7.030;2024-01-30T02:20:31;21.17;;;18.40;;
51654;SDS011;37732;53.106;7.030;2024-01-30T02:23:00;20.05;;;17.92;;
51654;SDS011;37732;53.106;7.030;2024-01-30T02:25:31;23.23;;;18.70;;
51654;SDS011;37732;53.106;7.030;2024-01-30T02:27:58;22.88;;;19.20;;
51654;SDS011;37732;53.106;7.030;2024-01-30T02:30:23;21.23;;;18.60;;
51654;SDS011;37732;53.106;7.030;2024-01-30T02:32:49;22.05;;;19.73;;
51654;SDS011;37732;53.106;7.030;2024-01-30T02:35:15;22.92;;;20.27;;
51654;SDS011;37732;53.106;7.030;2024-01-30T02:37:40;23.52;;;19.75;;
51654;SDS011;37732;53.106;7.030;2024-01-30T02:40:06;21.17;;;18.92;;
51654;SDS011;37732;53.106;7.030;2024-01-30T02:42:32;24.00;;;19.13;;
51654;SDS011;37732;53.106;7.030;2024-01-30T02:44:58;22.95;;;19.35;;
51654;SDS011;37732;53.106;7.030;2024-01-30T02:47:24;22.48;;;19.00;;
51654;SDS011;37732;53.106;7.030;2024-01-30T02:49:49;20.13;;;18.05;;
51654;SDS011;37732;53.106;7.030;2024-01-30T02:52:15;20.40;;;18.17;;
51654;SDS011;37732;53.106;7.030;2024-01-30T02:54:40;21.90;;;17.80;;
51654;SDS011;37732;53.106;7.030;2024-01-30T02:57:06;20.60;;;18.45;;
51654;SDS011;37732;53.106;7.030;2024-01-30T02:59:32;20.25;;;18.00;;
51654;SDS011;37732;53.106;7.030;2024-01-30T03:02:00;23.27;;;18.50;;
51654;SDS011;37732;53.106;7.030;2024-01-30T03:04:26;22.75;;;19.35;;
51654;SDS011;37732;53.106;7.030;2024-01-30T03:06:52;22.17;;;19.85;;
51654;SDS011;37732;53.106;7.030;2024-01-30T03:09:18;22.50;;;19.75;;
51654;SDS011;37732;53.106;7.030;2024-01-30T03:11:44;24.08;;;19.80;;
51654;SDS011;37732;53.106;7.030;2024-01-30T03:14:09;24.83;;;19.52;;
51654;SDS011;37732;53.106;7.030;2024-01-30T03:16:38;21.55;;;18.70;;
51654;SDS011;37732;53.106;7.030;2024-01-30T03:19:05;25.25;;;21.00;;
51654;SDS011;37732;53.106;7.030;2024-01-30T03:21:32;22.38;;;19.98;;
51654;SDS011;37732;53.106;7.030;2024-01-30T03:23:58;21.25;;;18.35;;
51654;SDS011;37732;53.106;7.030;2024-01-30T03:26:24;22.98;;;19.20;;
51654;SDS011;37732;53.106;7.030;2024-01-30T03:28:50;22.38;;;19.50;;
51654;SDS011;37732;53.106;7.030;2024-01-30T03:31:16;22.17;;;17.92;;
51654;SDS011;37732;53.106;7.030;2024-01-30T03:33:42;20.73;;;17.73;;
51654;SDS011;37732;53.106;7.030;2024-01-30T03:36:08;22.75;;;19.08;;
51654;SDS011;37732;53.106;7.030;2024-01-30T03:38:34;25.13;;;19.77;;
51654;SDS011;37732;53.106;7.030;2024-01-30T03:41:00;20.67;;;18.55;;
51654;SDS011;37732;53.106;7.030;2024-01-30T03:43:26;24.85;;;19.52;;
51654;SDS011;37732;53.106;7.030;2024-01-30T03:45:51;20.80;;;18.38;;
51654;SDS011;37732;53.106;7.030;2024-01-30T03:48:18;26.48;;;20.25;;
51654;SDS011;37732;53.106;7.030;2024-01-30T03:50:45;21.98;;;19.23;;
51654;SDS011;37732;53.106;7.030;2024-01-30T03:53:10;24.67;;;19.67;;
51654;SDS011;37732;53.106;7.030;2024-01-30T03:55:36;26.73;;;20.00;;
51654;SDS011;37732;53.106;7.030;2024-01-30T03:58:02;22.30;;;19.88;;
51654;SDS011;37732;53.106;7.030;2024-01-30T04:00:27;23.85;;;19.88;;
51654;SDS011;37732;53.106;7.030;2024-01-30T04:02:53;23.42;;;20.15;;
51654;SDS011;37732;53.106;7.030;2024-01-30T04:05:19;21.35;;;18.85;;
51654;SDS011;37732;53.106;7.030;2024-01-30T04:07:44;20.73;;;18.42;;
51654;SDS011;37732;53.106;7.030;2024-01-30T04:10:10;21.25;;;18.98;;
51654;SDS011;37732;53.106;7.030;2024-01-30T04:12:36;20.52;;;18.25;;
51654;SDS011;37732;53.106;7.030;2024-01-30T04:15:02;21.73;;;19.42;;
51654;SDS011;37732;53.106;7.030;2024-01-30T04:17:28;21.50;;;19.23;;
51654;SDS011;37732;53.106;7.030;2024-01-30T04:19:54;20.98;;;18.77;;
51654;SDS011;37732;53.106;7.030;2024-01-30T04:22:20;22.00;;;19.35;;
51654;SDS011;37732;53.106;7.030;2024-01-30T04:24:46;21.02;;;18.27;;
51654;SDS011;37732;53.106;7.030;2024-01-30T04:27:12;21.05;;;18.73;;
51654;SDS011;37732;53.106;7.030;2024-01-30T04:29:38;22.70;;;19.10;;
51654;SDS011;37732;53.106;7.030;2024-01-30T04:32:03;26.73;;;20.42;;
51654;SDS011;37732;53.106;7.030;2024-01-30T04:34:29;22.55;;;20.13;;
51654;SDS011;37732;53.106;7.030;2024-01-30T04:36:55;22.00;;;19.48;;
51654;SDS011;37732;53.106;7.030;2024-01-30T04:39:21;22.73;;;19.92;;
51654;SDS011;37732;53.106;7.030;2024-01-30T04:41:47;21.35;;;18.65;;
51654;SDS011;37732;53.106;7.030;2024-01-30T04:44:13;21.90;;;19.08;;
51654;SDS011;37732;53.106;7.030;2024-01-30T04:46:39;21.70;;;19.42;;
51654;SDS011;37732;53.106;7.030;2024-01-30T04:49:05;22.17;;;19.08;;
51654;SDS011;37732;53.106;7.030;2024-01-30T04:51:32;22.20;;;18.85;;
51654;SDS011;37732;53.106;7.030;2024-01-30T04:53:58;20.75;;;18.10;;
51654;SDS011;37732;53.106;7.030;2024-01-30T04:56:24;24.30;;;18.65;;
51654;SDS011;37732;53.106;7.030;2024-01-30T04:58:50;20.65;;;18.45;;
51654;SDS011;37732;53.106;7.030;2024-01-30T05:01:16;24.38;;;19.58;;
51654;SDS011;37732;53.106;7.030;2024-01-30T05:03:42;21.45;;;19.15;;
51654;SDS011;37732;53.106;7.030;2024-01-30T05:06:08;23.65;;;19.10;;
51654;SDS011;37732;53.106;7.030;2024-01-30T05:08:33;19.15;;;17.10;;
51654;SDS011;37732;53.106;7.030;2024-01-30T05:11:02;23.58;;;20.02;;
51654;SDS011;37732;53.106;7.030;2024-01-30T05:13:30;20.00;;;17.92;;
51654;SDS011;37732;53.106;7.030;2024-01-30T05:15:56;21.73;;;18.60;;
51654;SDS011;37732;53.106;7.030;2024-01-30T05:18:21;20.35;;;18.25;;
51654;SDS011;37732;53.106;7.030;2024-01-30T05:20:47;22.35;;;19.48;;
51654;SDS011;37732;53.106;7.030;2024-01-30T05:23:13;20.35;;;18.25;;
51654;SDS011;37732;53.106;7.030;2024-01-30T05:25:39;21.30;;;18.75;;
51654;SDS011;37732;53.106;7.030;2024-01-30T05:28:05;21.33;;;18.77;;
51654;SDS011;37732;53.106;7.030;2024-01-30T05:30:30;22.55;;;20.08;;
51654;SDS011;37732;53.106;7.030;2024-01-30T05:32:56;21.90;;;19.58;;
51654;SDS011;37732;53.106;7.030;2024-01-30T05:35:22;23.83;;;20.30;;
51654;SDS011;37732;53.106;7.030;2024-01-30T05:37:48;21.33;;;19.13;;
51654;SDS011;37732;53.106;7.030;2024-01-30T05:40:15;22.10;;;19.73;;
51654;SDS011;37732;53.106;7.030;2024-01-30T05:42:41;23.00;;;19.92;;
51654;SDS011;37732;53.106;7.030;2024-01-30T05:45:06;23.25;;;18.95;;
51654;SDS011;37732;53.106;7.030;2024-01-30T05:47:33;22.67;;;19.30;;
51654;SDS011;37732;53.106;7.030;2024-01-30T05:49:59;21.13;;;18.92;;
51654;SDS011;37732;53.106;7.030;2024-01-30T05:52:25;24.35;;;20.38;;
51654;SDS011;37732;53.106;7.030;2024-01-30T05:54:51;22.10;;;19.80;;
51654;SDS011;37732;53.106;7.030;2024-01-30T05:57:16;22.40;;;20.10;;
51654;SDS011;37732;53.106;7.030;2024-01-30T05:59:42;25.05;;;20.55;;
51654;SDS011;37732;53.106;7.030;2024-01-30T06:02:12;25.10;;;22.10;;
51654;SDS011;37732;53.106;7.030;2024-01-30T06:04:38;25.45;;;21.08;;
51654;SDS011;37732;53.106;7.030;2024-01-30T06:07:04;22.63;;;20.23;;
51654;SDS011;37732;53.106;7.030;2024-01-30T06:09:31;21.30;;;19.10;;
51654;SDS011;37732;53.106;7.030;2024-01-30T06:11:57;22.27;;;19.92;;
51654;SDS011;37732;53.106;7.030;2024-01-30T06:14:23;23.17;;;18.42;;
51654;SDS011;37732;53.106;7.030;2024-01-30T06:16:49;22.38;;;19.98;;
51654;SDS011;37732;53.106;7.030;2024-01-30T06:19:15;22.83;;;19.05;;
51654;SDS011;37732;53.106;7.030;2024-01-30T06:21:41;21.90;;;19.65;;
51654;SDS011;37732;53.106;7.030;2024-01-30T06:24:06;25.17;;;19.88;;
51654;SDS011;37732;53.106;7.030;2024-01-30T06:26:32;20.98;;;18.75;;
51654;SDS011;37732;53.106;7.030;2024-01-30T06:28:59;22.08;;;19.85;;
51654;SDS011;37732;53.106;7.030;2024-01-30T06:31:24;22.23;;;19.20;;
51654;SDS011;37732;53.106;7.030;2024-01-30T06:33:50;21.10;;;18.95;;
51654;SDS011;37732;53.106;7.030;2024-01-30T06:36:16;22.27;;;19.85;;
51654;SDS011;37732;53.106;7.030;2024-01-30T06:38:41;20.63;;;18.25;;
51654;SDS011;37732;53.106;7.030;2024-01-30T06:41:07;21.48;;;19.17;;
51654;SDS011;37732;53.106;7.030;2024-01-30T06:43:33;21.25;;;18.70;;
51654;SDS011;37732;53.106;7.030;2024-01-30T06:45:59;20.92;;;18.67;;
51654;SDS011;37732;53.106;7.030;2024-01-30T06:48:25;23.35;;;19.48;;
51654;SDS011;37732;53.106;7.030;2024-01-30T06:50:53;20.58;;;18.38;;
51654;SDS011;37732;53.106;7.030;2024-01-30T06:53:19;20.50;;;18.27;;
51654;SDS011;37732;53.106;7.030;2024-01-30T06:55:45;20.27;;;16.30;;
51654;SDS011;37732;53.106;7.030;2024-01-30T06:58:10;21.67;;;18.77;;
51654;SDS011;37732;53.106;7.030;2024-01-30T07:00:37;21.48;;;18.52;;
51654;SDS011;37732;53.106;7.030;2024-01-30T07:03:02;20.80;;;18.40;;
51654;SDS011;37732;53.106;7.030;2024-01-30T07:05:28;21.20;;;19.02;;
51654;SDS011;37732;53.106;7.030;2024-01-30T07:07:55;22.20;;;18.10;;
51654;SDS011;37732;53.106;7.030;2024-01-30T07:10:21;20.92;;;17.70;;
51654;SDS011;37732;53.106;7.030;2024-01-30T07:12:46;20.40;;;18.30;;
51654;SDS011;37732;53.106;7.030;2024-01-30T07:15:12;20.15;;;16.88;;
51654;SDS011;37732;53.106;7.030;2024-01-30T07:17:41;22.35;;;17.40;;
51654;SDS011;37732;53.106;7.030;2024-01-30T07:20:07;21.35;;;18.58;;
51654;SDS011;37732;53.106;7.030;2024-01-30T07:22:34;19.35;;;17.35;;
51654;SDS011;37732;53.106;7.030;2024-01-30T07:25:00;20.45;;;17.42;;
51654;SDS011;37732;53.106;7.030;2024-01-30T07:27:25;22.23;;;18.50;;
51654;SDS011;37732;53.106;7.030;2024-01-30T07:29:51;20.55;;;18.38;;
51654;SDS011;37732;53.106;7.030;2024-01-30T07:32:17;22.77;;;18.70;;
51654;SDS011;37732;53.106;7.030;2024-01-30T07:34:43;22.40;;;18.35;;
51654;SDS011;37732;53.106;7.030;2024-01-30T07:37:09;20.95;;;17.65;;
51654;SDS011;37732;53.106;7.030;2024-01-30T07:39:35;20.95;;;17.45;;
51654;SDS011;37732;53.106;7.030;2024-01-30T07:42:02;21.10;;;19.00;;
51654;SDS011;37732;53.106;7.030;2024-01-30T07:44:27;21.85;;;18.75;;
51654;SDS011;37732;53.106;7.030;2024-01-30T07:46:53;18.67;;;16.83;;
51654;SDS011;37732;53.106;7.030;2024-01-30T07:49:20;20.48;;;17.10;;
51654;SDS011;37732;53.106;7.030;2024-01-30T07:51:45;19.83;;;17.73;;
51654;SDS011;37732;53.106;7.030;2024-01-30T07:54:11;22.20;;;17.85;;
51654;SDS011;37732;53.106;7.030;2024-01-30T07:56:40;18.52;;;16.55;;
51654;SDS011;37732;53.106;7.030;2024-01-30T07:59:09;24.65;;;17.80;;
51654;SDS011;37732;53.106;7.030;2024-01-30T08:01:36;20.85;;;16.08;;
51654;SDS011;37732;53.106;7.030;2024-01-30T08:04:01;19.45;;;17.42;;
51654;SDS011;37732;53.106;7.030;2024-01-30T08:06:27;18.90;;;16.35;;
51654;SDS011;37732;53.106;7.030;2024-01-30T08:08:53;18.55;;;16.52;;
51654;SDS011;37732;53.106;7.030;2024-01-30T08:11:21;20.90;;;17.25;;
51654;SDS011;37732;53.106;7.030;2024-01-30T08:13:54;19.30;;;17.25;;
51654;SDS011;37732;53.106;7.030;2024-01-30T08:16:20;19.33;;;17.10;;
51654;SDS011;37732;53.106;7.030;2024-01-30T08:18:46;18.58;;;16.70;;
51654;SDS011;37732;53.106;7.030;2024-01-30T08:21:12;20.33;;;17.35;;
51654;SDS011;37732;53.106;7.030;2024-01-30T08:23:40;18.77;;;16.45;;
51654;SDS011;37732;53.106;7.030;2024-01-30T08:26:07;18.63;;;15.85;;
51654;SDS011;37732;53.106;7.030;2024-01-30T08:28:33;18.98;;;15.88;;
51654;SDS011;37732;53.106;7.030;2024-01-30T08:30:59;18.35;;;16.17;;
51654;SDS011;37732;53.106;7.030;2024-01-30T08:33:24;17.98;;;16.10;;
51654;SDS011;37732;53.106;7.030;2024-01-30T08:35:50;17.42;;;15.45;;
51654;SDS011;37732;53.106;7.030;2024-01-30T08:38:16;18.27;;;16.35;;
51654;SDS011;37732;53.106;7.030;2024-01-30T08:40:41;18.77;;;15.70;;
51654;SDS011;37732;53.106;7.030;2024-01-30T08:43:07;18.00;;;16.13;;
51654;SDS011;37732;53.106;7.030;2024-01-30T08:45:35;19.30;;;14.80;;
51654;SDS011;37732;53.106;7.030;2024-01-30T08:48:01;20.83;;;15.07;;
51654;SDS011;37732;53.106;7.030;2024-01-30T08:50:26;20.55;;;15.95;;
51654;SDS011;37732;53.106;7.030;2024-01-30T08:52:52;16.88;;;14.38;;
51654;SDS011;37732;53.106;7.030;2024-01-30T08:55:18;17.10;;;14.07;;
51654;SDS011;37732;53.106;7.030;2024-01-30T08:57:44;15.90;;;14.18;;
51654;SDS011;37732;53.106;7.030;2024-01-30T09:00:09;15.68;;;13.95;;
51654;SDS011;37732;53.106;7.030;2024-01-30T09:02:36;20.10;;;14.77;;
51654;SDS011;37732;53.106;7.030;2024-01-30T09:05:02;20.35;;;14.75;;
51654;SDS011;37732;53.106;7.030;2024-01-30T09:07:27;16.10;;;14.40;;
51654;SDS011;37732;53.106;7.030;2024-01-30T09:09:53;17.25;;;14.60;;
51654;SDS011;37732;53.106;7.030;2024-01-30T09:12:19;16.48;;;13.60;;
51654;SDS011;37732;53.106;7.030;2024-01-30T09:14:44;15.05;;;12.73;;
51654;SDS011;37732;53.106;7.030;2024-01-30T09:17:10;16.38;;;13.65;;
51654;SDS011;37732;53.106;7.030;2024-01-30T09:19:36;19.40;;;13.85;;
51654;SDS011;37732;53.106;7.030;2024-01-30T09:22:01;19.50;;;13.93;;
51654;SDS011;37732;53.106;7.030;2024-01-30T09:24:28;17.33;;;12.85;;
51654;SDS011;37732;53.106;7.030;2024-01-30T09:26:53;17.85;;;14.45;;
51654;SDS011;37732;53.106;7.030;2024-01-30T09:29:19;13.63;;;12.23;;
51654;SDS011;37732;53.106;7.030;2024-01-30T09:31:45;16.17;;;12.57;;
51654;SDS011;37732;53.106;7.030;2024-01-30T09:34:11;17.10;;;13.27;;
51654;SDS011;37732;53.106;7.030;2024-01-30T09:36:37;14.98;;;12.80;;
51654;SDS011;37732;53.106;7.030;2024-01-30T09:39:03;15.82;;;12.75;;
51654;SDS011;37732;53.106;7.030;2024-01-30T09:41:29;18.00;;;13.77;;
51654;SDS011;37732;53.106;7.030;2024-01-30T09:43:58;15.60;;;12.32;;
51654;SDS011;37732;53.106;7.030;2024-01-30T09:46:26;14.60;;;12.48;;
51654;SDS011;37732;53.106;7.030;2024-01-30T09:48:53;18.73;;;12.95;;
51654;SDS011;37732;53.106;7.030;2024-01-30T09:51:20;18.55;;;13.52;;
51654;SDS011;37732;53.106;7.030;2024-01-30T09:53:47;15.02;;;13.43;;
51654;SDS011;37732;53.106;7.030;2024-01-30T09:56:14;14.63;;;12.30;;
51654;SDS011;37732;53.106;7.030;2024-01-30T09:58:40;17.20;;;14.13;;
51654;SDS011;37732;53.106;7.030;2024-01-30T10:01:07;15.07;;;12.32;;
51654;SDS011;37732;53.106;7.030;2024-01-30T10:03:32;15.25;;;12.25;;
51654;SDS011;37732;53.106;7.030;2024-01-30T10:05:58;18.55;;;13.18;;
51654;SDS011;37732;53.106;7.030;2024-01-30T10:08:26;15.38;;;13.23;;
51654;SDS011;37732;53.106;7.030;2024-01-30T10:10:52;14.50;;;11.68;;
51654;SDS011;37732;53.106;7.030;2024-01-30T10:13:18;15.45;;;12.63;;
51654;SDS011;37732;53.106;7.030;2024-01-30T10:15:44;17.98;;;12.25;;
51654;SDS011;37732;53.106;7.030;2024-01-30T10:18:12;17.70;;;12.57;;
51654;SDS011;37732;53.106;7.030;2024-01-30T10:20:38;16.60;;;12.55;;
51654;SDS011;37732;53.106;7.030;2024-01-30T10:23:04;14.82;;;13.00;;
51654;SDS011;37732;53.106;7.030;2024-01-30T10:25:32;18.15;;;13.55;;
51654;SDS011;37732;53.106;7.030;2024-01-30T10:27:58;16.77;;;12.68;;
51654;SDS011;37732;53.106;7.030;2024-01-30T10:30:24;16.15;;;13.15;;
51654;SDS011;37732;53.106;7.030;2024-01-30T10:32:50;15.88;;;13.23;;
51654;SDS011;37732;53.106;7.030;2024-01-30T10:35:16;15.05;;;12.63;;
51654;SDS011;37732;53.106;7.030;2024-01-30T10:37:46;14.20;;;12.70;;
51654;SDS011;37732;53.106;7.030;2024-01-30T10:40:13;16.08;;;12.43;;
51654;SDS011;37732;53.106;7.030;2024-01-30T10:42:42;18.38;;;13.93;;
51654;SDS011;37732;53.106;7.030;2024-01-30T10:45:09;16.80;;;12.88;;
51654;SDS011;37732;53.106;7.030;2024-01-30T10:48:00;15.30;;;12.45;;
51654;SDS011;37732;53.106;7.030;2024-01-30T10:50:25;17.42;;;14.27;;
51654;SDS011;37732;53.106;7.030;2024-01-30T10:52:52;16.02;;;13.02;;
51654;SDS011;37732;53.106;7.030;2024-01-30T10:55:18;16.60;;;11.82;;
51654;SDS011;37732;53.106;7.030;2024-01-30T10:57:46;15.68;;;12.73;;
51654;SDS011;37732;53.106;7.030;2024-01-30T11:00:13;16.48;;;12.57;;
51654;SDS011;37732;53.106;7.030;2024-01-30T11:02:44;15.25;;;13.63;;
51654;SDS011;37732;53.106;7.030;2024-01-30T11:05:11;18.75;;;13.48;;
51654;SDS011;37732;53.106;7.030;2024-01-30T11:07:38;14.50;;;11.65;;
51654;SDS011;37732;53.106;7.030;2024-01-30T11:10:08;15.45;;;11.98;;
51654;SDS011;37732;53.106;7.030;2024-01-30T11:12:37;14.77;;;12.57;;
51654;SDS011;37732;53.106;7.030;2024-01-30T11:15:14;14.13;;;11.88;;
51654;SDS011;37732;53.106;7.030;2024-01-30T11:22:42;14.93;;;12.68;;
51654;SDS011;37732;53.106;7.030;2024-01-30T11:25:12;18.83;;;12.80;;
51654;SDS011;37732;53.106;7.030;2024-01-30T11:27:42;17.15;;;13.38;;
51654;SDS011;37732;53.106;7.030;2024-01-30T11:30:09;16.80;;;12.57;;
51654;SDS011;37732;53.106;7.030;2024-01-30T11:32:36;20.52;;;14.18;;
51654;SDS011;37732;53.106;7.030;2024-01-30T11:35:05;19.33;;;13.48;;
51654;SDS011;37732;53.106;7.030;2024-01-30T11:37:31;16.00;;;13.23;;
51654;SDS011;37732;53.106;7.030;2024-01-30T11:39:59;16.38;;;11.65;;
51654;SDS011;37732;53.106;7.030;2024-01-30T11:42:25;15.43;;;12.80;;
51654;SDS011;37732;53.106;7.030;2024-01-30T11:44:52;18.60;;;14.00;;
51654;SDS011;37732;53.106;7.030;2024-01-30T11:47:17;19.17;;;13.57;;
51654;SDS011;37732;53.106;7.030;2024-01-30T11:49:43;17.23;;;13.82;;
51654;SDS011;37732;53.106;7.030;2024-01-30T11:52:10;17.83;;;13.02;;
51654;SDS011;37732;53.106;7.030;2024-01-30T11:54:39;21.23;;;14.10;;
51654;SDS011;37732;53.106;7.030;2024-01-30T11:57:05;18.30;;;14.50;;
51654;SDS011;37732;53.106;7.030;2024-01-30T11:59:30;16.88;;;12.57;;
51654;SDS011;37732;53.106;7.030;2024-01-30T12:01:56;15.77;;;12.85;;
51654;SDS011;37732;53.106;7.030;2024-01-30T12:04:22;17.52;;;13.85;;
51654;SDS011;37732;53.106;7.030;2024-01-30T12:06:50;15.32;;;13.07;;
51654;SDS011;37732;53.106;7.030;2024-01-30T12:09:16;19.77;;;13.68;;
51654;SDS011;37732;53.106;7.030;2024-01-30T12:14:11;19.92;;;13.75;;
51654;SDS011;37732;53.106;7.030;2024-01-30T12:16:37;18.25;;;13.38;;
51654;SDS011;37732;53.106;7.030;2024-01-30T12:19:03;18.42;;;12.85;;
51654;SDS011;37732;53.106;7.030;2024-01-30T12:21:29;23.52;;;14.95;;
51654;SDS011;37732;53.106;7.030;2024-01-30T12:23:56;16.80;;;13.85;;
51654;SDS011;37732;53.106;7.030;2024-01-30T12:26:23;20.10;;;14.77;;
51654;SDS011;37732;53.106;7.030;2024-01-30T12:28:50;16.98;;;13.65;;
51654;SDS011;37732;53.106;7.030;2024-01-30T12:31:18;19.30;;;14.02;;
51654;SDS011;37732;53.106;7.030;2024-01-30T12:33:53;18.13;;;14.20;;
51654;SDS011;37732;53.106;7.030;2024-01-30T12:36:20;16.85;;;13.82;;
51654;SDS011;37732;53.106;7.030;2024-01-30T12:38:47;15.48;;;13.50;;
51654;SDS011;37732;53.106;7.030;2024-01-30T12:41:13;16.63;;;13.77;;
51654;SDS011;37732;53.106;7.030;2024-01-30T12:43:38;15.68;;;13.90;;
51654;SDS011;37732;53.106;7.030;2024-01-30T12:46:05;18.60;;;14.32;;
51654;SDS011;37732;53.106;7.030;2024-01-30T12:48:30;16.85;;;11.70;;
51654;SDS011;37732;53.106;7.030;2024-01-30T12:50:56;18.73;;;11.38;;
51654;SDS011;37732;53.106;7.030;2024-01-30T12:53:22;25.48;;;11.80;;
51654;SDS011;37732;53.106;7.030;2024-01-30T12:55:48;20.23;;;11.10;;
51654;SDS011;37732;53.106;7.030;2024-01-30T12:58:15;16.77;;;11.73;;
51654;SDS011;37732;53.106;7.030;2024-01-30T13:00:41;22.70;;;10.45;;
51654;SDS011;37732;53.106;7.030;2024-01-30T13:03:08;17.42;;;11.60;;
51654;SDS011;37732;53.106;7.030;2024-01-30T13:05:35;20.10;;;10.98;;
51654;SDS011;37732;53.106;7.030;2024-01-30T13:08:01;14.43;;;10.13;;
51654;SDS011;37732;53.106;7.030;2024-01-30T13:10:26;16.58;;;9.70;;
51654;SDS011;37732;53.106;7.030;2024-01-30T13:12:52;15.88;;;9.38;;
51654;SDS011;37732;53.106;7.030;2024-01-30T13:15:18;15.35;;;8.23;;
51654;SDS011;37732;53.106;7.030;2024-01-30T13:17:44;14.18;;;7.72;;
51654;SDS011;37732;53.106;7.030;2024-01-30T13:20:12;13.30;;;7.13;;
51654;SDS011;37732;53.106;7.030;2024-01-30T13:22:44;9.40;;;6.32;;
51654;SDS011;37732;53.106;7.030;2024-01-30T13:25:10;9.43;;;6.13;;
51654;SDS011;37732;53.106;7.030;2024-01-30T13:27:39;9.50;;;4.90;;
51654;SDS011;37732;53.106;7.030;2024-01-30T13:30:06;7.38;;;4.18;;
51654;SDS011;37732;53.106;7.030;2024-01-30T13:32:36;6.57;;;3.42;;
51654;SDS011;37732;53.106;7.030;2024-01-30T13:35:02;6.85;;;2.97;;
51654;SDS011;37732;53.106;7.030;2024-01-30T13:37:28;4.78;;;2.33;;
51654;SDS011;37732;53.106;7.030;2024-01-30T13:39:54;4.90;;;2.83;;
51654;SDS011;37732;53.106;7.030;2024-01-30T13:42:21;7.22;;;2.88;;
51654;SDS011;37732;53.106;7.030;2024-01-30T13:44:47;5.15;;;2.60;;
51654;SDS011;37732;53.106;7.030;2024-01-30T13:47:12;4.88;;;2.17;;
51654;SDS011;37732;53.106;7.030;2024-01-30T13:49:38;5.18;;;2.38;;
51654;SDS011;37732;53.106;7.030;2024-01-30T13:52:04;4.78;;;2.47;;
51654;SDS011;37732;53.106;7.030;2024-01-30T13:54:30;5.70;;;2.60;;
51654;SDS011;37732;53.106;7.030;2024-01-30T13:56:55;8.18;;;2.42;;
51654;SDS011;37732;53.106;7.030;2024-01-30T13:59:22;5.07;;;2.70;;
51654;SDS011;37732;53.106;7.030;2024-01-30T14:01:51;4.28;;;2.42;;
51654;SDS011;37732;53.106;7.030;2024-01-30T14:04:17;4.80;;;2.70;;
51654;SDS011;37732;53.106;7.030;2024-01-30T14:06:42;5.03;;;2.78;;
51654;SDS011;37732;53.106;7.030;2024-01-30T14:09:08;6.68;;;2.22;;
51654;SDS011;37732;53.106;7.030;2024-01-30T14:11:35;6.00;;;2.13;;
51654;SDS011;37732;53.106;7.030;2024-01-30T14:14:01;4.28;;;2.15;;
51654;SDS011;37732;53.106;7.030;2024-01-30T14:16:26;4.57;;;2.30;;
51654;SDS011;37732;53.106;7.030;2024-01-30T14:18:53;5.00;;;2.40;;
51654;SDS011;37732;53.106;7.030;2024-01-30T14:21:19;4.90;;;1.90;;
51654;SDS011;37732;53.106;7.030;2024-01-30T14:23:45;4.88;;;1.73;;
51654;SDS011;37732;53.106;7.030;2024-01-30T14:26:12;4.63;;;1.70;;
51654;SDS011;37732;53.106;7.030;2024-01-30T14:28:37;2.83;;;1.52;;